Hlavní strana
METAR-TAF:

METAR-TAF

Letiště :

Greenwood County Airport

Greenwood, Jižní Karolína, Spojené státy americké

zeměpisná šířka: 34-14-50N, zeměpisná délka: 082-09-17W, výška: 192 m

Aktuální stav počasí

Zpráva byla vytvořena před 37 minutami, v 17:56 UTC
Severoseverovýchodní vítr 10 kt
Teplota 5°C
Vlhkost vzduchu 93%
Tlak 1020 hPa
Viditelnost: 6.4 km
Skoro jasno ve výšce 6000 ft
Zataženo ve výšce 9000 ft
déšť, kouřmo

METAR: KGRD 151756Z AUTO 03010KT 4SM RA BR FEW060 OVC090 05/04 A3013 RMK AO2 SLP206 P0016 60027 T00500044 10050 20039 58017

Čas: 13:33 (18:33 UTC)


TAF: chybějící

Stav a předpovědi počasí z více než 4 000 letišť (zprávy METAR a TAF).

Červené a žluté tečky na mapě představují dostupné meteorologické stanice.

Když kurzor umístíte na tečku, zobrazí se název stanice.

Pak kliknutím zobrazíte stav a předpověď počasí.

Chcete-li změnit mapu, kliknutím na zelené tlačítko se znaménkem +mapu přiblížíte, kliknutím na zelené tlačítko se znaménkem – mapu oddálíte a kliknutím na zelené šipky přejdete na sousední mapy.


METAR-TAF: